This is the latest recevied weather packets stored in our database for station/object DB0FN-10. If no packets are shown the sender has not sent any weather packets the latest 10 day(s).
| Time | Temp. | Humidity | Pressure | Rain* | Wind** | Luminosity | Snow |
|---|---|---|---|---|---|---|---|
| 1787636817 | 20.56° C | 56% | 1017.2 hPa | - | - | - | - |
| 1787635917 | 21.11° C | 51% | 1017 hPa | - | - | - | - |
| 1787635017 | 21.11° C | 47% | 1016.7 hPa | - | - | - | - |
| 1787634117 | 21.67° C | 46% | 1016.5 hPa | - | - | - | - |
| 1787633217 | 21.67° C | 46% | 1016.3 hPa | - | - | - | - |
| 1787632317 | 21.67° C | 45% | 1015.9 hPa | - | - | - | - |
| 1787631416 | 21.67° C | 46% | 1015.7 hPa | - | - | - | - |
| 1787630516 | 21.67° C | 44% | 1015.6 hPa | - | - | - | - |
| 1787629616 | 21.67° C | 44% | 1015.4 hPa | - | - | - | - |
| 1787628716 | 21.67° C | 43% | 1015.3 hPa | - | - | - | - |
| 1787627816 | 21.11° C | 44% | 1015 hPa | - | - | - | - |
| 1787626916 | 19.44° C | 50% | 1014.8 hPa | - | - | - | - |
| 1787626016 | 20.56° C | 49% | 1014.7 hPa | - | - | - | - |
| 1787625116 | 21.11° C | 45% | 1014.7 hPa | - | - | - | - |
| 1787624216 | 20.56° C | 46% | 1014.8 hPa | - | - | - | - |
| 1787623316 | 21.67° C | 43% | 1014.7 hPa | - | - | - | - |
| 1787622416 | 21.11° C | 45% | 1014.8 hPa | - | - | - | - |
| 1787621516 | 21.11° C | 46% | 1014.9 hPa | - | - | - | - |
| 1787620615 | 21.67° C | 44% | 1015.2 hPa | - | - | - | - |
| 1787619715 | 21.67° C | 43% | 1015.1 hPa | - | - | - | - |
| 1787618815 | 21.67° C | 44% | 1015 hPa | - | - | - | - |
| 1787617915 | 21.11° C | 44% | 1015.1 hPa | - | - | - | - |
| 1787617015 | 21.11° C | 44% | 1015.1 hPa | - | - | - | - |
| 1787616115 | 20.56° C | 45% | 1014.7 hPa | - | - | - | - |
| 1787615215 | 20.56° C | 44% | 1014.7 hPa | - | - | - | - |
* Rain since midnight (hover to see other rain measurements)
** Current wind speed in m/s (hover to see current wind gust speed)